sensor_id;sensor_type;location;lat;lon;timestamp;P1;durP1;ratioP1;P2;durP2;ratioP2
72337;SDS011;60294;64.134;-21.862;2022-11-14T00:02:18;1.38;;;0.50;;
72337;SDS011;60294;64.134;-21.862;2022-11-14T00:04:45;0.30;;;0.30;;
72337;SDS011;60294;64.134;-21.862;2022-11-14T00:07:12;3.25;;;1.02;;
72337;SDS011;60294;64.134;-21.862;2022-11-14T00:09:38;2.05;;;0.77;;
72337;SDS011;60294;64.134;-21.862;2022-11-14T00:12:07;2.83;;;0.95;;
72337;SDS011;60294;64.134;-21.862;2022-11-14T00:14:34;1.50;;;0.50;;
72337;SDS011;60294;64.134;-21.862;2022-11-14T00:17:00;3.65;;;0.88;;
72337;SDS011;60294;64.134;-21.862;2022-11-14T00:19:26;1.33;;;0.80;;
72337;SDS011;60294;64.134;-21.862;2022-11-14T00:21:52;1.55;;;0.52;;
72337;SDS011;60294;64.134;-21.862;2022-11-14T00:24:18;3.40;;;1.15;;
72337;SDS011;60294;64.134;-21.862;2022-11-14T00:26:44;1.63;;;0.60;;
72337;SDS011;60294;64.134;-21.862;2022-11-14T00:29:11;3.50;;;0.70;;
72337;SDS011;60294;64.134;-21.862;2022-11-14T00:31:37;1.42;;;0.43;;
72337;SDS011;60294;64.134;-21.862;2022-11-14T00:34:03;2.97;;;1.23;;
72337;SDS011;60294;64.134;-21.862;2022-11-14T00:36:29;1.65;;;0.40;;
72337;SDS011;60294;64.134;-21.862;2022-11-14T00:38:55;4.63;;;0.50;;
72337;SDS011;60294;64.134;-21.862;2022-11-14T00:41:21;1.92;;;0.68;;
72337;SDS011;60294;64.134;-21.862;2022-11-14T00:43:47;1.92;;;0.30;;
72337;SDS011;60294;64.134;-21.862;2022-11-14T00:46:13;0.38;;;0.30;;
72337;SDS011;60294;64.134;-21.862;2022-11-14T00:48:39;2.67;;;0.52;;
72337;SDS011;60294;64.134;-21.862;2022-11-14T00:51:05;1.00;;;0.40;;
72337;SDS011;60294;64.134;-21.862;2022-11-14T00:53:31;3.10;;;0.43;;
72337;SDS011;60294;64.134;-21.862;2022-11-14T00:55:56;4.60;;;0.73;;
72337;SDS011;60294;64.134;-21.862;2022-11-14T00:58:22;1.80;;;0.50;;
72337;SDS011;60294;64.134;-21.862;2022-11-14T01:00:48;3.13;;;0.50;;
72337;SDS011;60294;64.134;-21.862;2022-11-14T01:03:15;1.05;;;0.60;;
72337;SDS011;60294;64.134;-21.862;2022-11-14T01:05:41;1.65;;;0.52;;
72337;SDS011;60294;64.134;-21.862;2022-11-14T01:08:15;0.57;;;0.30;;
72337;SDS011;60294;64.134;-21.862;2022-11-14T01:10:44;5.43;;;0.88;;
72337;SDS011;60294;64.134;-21.862;2022-11-14T01:13:12;1.80;;;0.65;;
72337;SDS011;60294;64.134;-21.862;2022-11-14T01:15:42;3.80;;;0.60;;
72337;SDS011;60294;64.134;-21.862;2022-11-14T01:18:12;3.67;;;0.43;;
72337;SDS011;60294;64.134;-21.862;2022-11-14T01:20:41;0.47;;;0.40;;
72337;SDS011;60294;64.134;-21.862;2022-11-14T01:23:08;0.93;;;0.40;;
72337;SDS011;60294;64.134;-21.862;2022-11-14T01:25:35;0.73;;;0.45;;
72337;SDS011;60294;64.134;-21.862;2022-11-14T01:28:09;0.30;;;0.30;;
72337;SDS011;60294;64.134;-21.862;2022-11-14T01:30:37;0.63;;;0.30;;
72337;SDS011;60294;64.134;-21.862;2022-11-14T01:33:03;0.20;;;0.20;;
72337;SDS011;60294;64.134;-21.862;2022-11-14T01:35:30;0.85;;;0.32;;
72337;SDS011;60294;64.134;-21.862;2022-11-14T01:37:58;0.20;;;0.20;;
72337;SDS011;60294;64.134;-21.862;2022-11-14T01:40:24;0.95;;;0.30;;
72337;SDS011;60294;64.134;-21.862;2022-11-14T01:48:27;0.15;;;0.10;;
72337;SDS011;60294;64.134;-21.862;2022-11-14T01:51:49;0.45;;;0.20;;
72337;SDS011;60294;64.134;-21.862;2022-11-14T01:53:55;0.20;;;0.20;;
72337;SDS011;60294;64.134;-21.862;2022-11-14T01:56:31;0.20;;;0.20;;
72337;SDS011;60294;64.134;-21.862;2022-11-14T01:59:09;0.85;;;0.30;;
72337;SDS011;60294;64.134;-21.862;2022-11-14T02:01:40;0.45;;;0.25;;
72337;SDS011;60294;64.134;-21.862;2022-11-14T02:04:17;0.43;;;0.28;;
72337;SDS011;60294;64.134;-21.862;2022-11-14T02:06:47;0.10;;;0.10;;
72337;SDS011;60294;64.134;-21.862;2022-11-14T02:09:13;1.17;;;0.30;;
72337;SDS011;60294;64.134;-21.862;2022-11-14T02:11:43;0.95;;;0.30;;
72337;SDS011;60294;64.134;-21.862;2022-11-14T02:14:10;0.35;;;0.30;;
72337;SDS011;60294;64.134;-21.862;2022-11-14T02:16:40;0.20;;;0.20;;
72337;SDS011;60294;64.134;-21.862;2022-11-14T02:19:07;0.20;;;0.20;;
72337;SDS011;60294;64.134;-21.862;2022-11-14T02:21:33;0.13;;;0.10;;
72337;SDS011;60294;64.134;-21.862;2022-11-14T02:23:59;3.05;;;0.40;;
72337;SDS011;60294;64.134;-21.862;2022-11-14T02:26:25;0.20;;;0.20;;
72337;SDS011;60294;64.134;-21.862;2022-11-14T02:28:51;0.60;;;0.20;;
72337;SDS011;60294;64.134;-21.862;2022-11-14T02:31:17;0.10;;;0.10;;
72337;SDS011;60294;64.134;-21.862;2022-11-14T02:33:43;1.25;;;0.40;;
72337;SDS011;60294;64.134;-21.862;2022-11-14T02:36:09;0.65;;;0.30;;
72337;SDS011;60294;64.134;-21.862;2022-11-14T02:38:34;0.50;;;0.50;;
72337;SDS011;60294;64.134;-21.862;2022-11-14T02:41:01;0.10;;;0.10;;
72337;SDS011;60294;64.134;-21.862;2022-11-14T02:43:27;0.20;;;0.20;;
72337;SDS011;60294;64.134;-21.862;2022-11-14T02:45:53;0.28;;;0.28;;
72337;SDS011;60294;64.134;-21.862;2022-11-14T02:48:19;1.30;;;0.30;;
72337;SDS011;60294;64.134;-21.862;2022-11-14T02:50:46;1.35;;;0.10;;
72337;SDS011;60294;64.134;-21.862;2022-11-14T02:53:13;1.08;;;0.20;;
72337;SDS011;60294;64.134;-21.862;2022-11-14T02:55:39;0.20;;;0.20;;
72337;SDS011;60294;64.134;-21.862;2022-11-14T02:58:05;0.40;;;0.20;;
72337;SDS011;60294;64.134;-21.862;2022-11-14T03:00:31;1.08;;;0.73;;
72337;SDS011;60294;64.134;-21.862;2022-11-14T03:02:57;0.88;;;0.77;;
72337;SDS011;60294;64.134;-21.862;2022-11-14T03:05:23;1.27;;;1.08;;
72337;SDS011;60294;64.134;-21.862;2022-11-14T03:07:53;0.15;;;0.15;;
72337;SDS011;60294;64.134;-21.862;2022-11-14T03:10:20;0.20;;;0.20;;
72337;SDS011;60294;64.134;-21.862;2022-11-14T03:12:47;0.32;;;0.20;;
72337;SDS011;60294;64.134;-21.862;2022-11-14T03:15:17;0.10;;;0.10;;
72337;SDS011;60294;64.134;-21.862;2022-11-14T03:17:43;0.38;;;0.28;;
72337;SDS011;60294;64.134;-21.862;2022-11-14T03:20:09;0.38;;;0.28;;
72337;SDS011;60294;64.134;-21.862;2022-11-14T03:22:35;1.65;;;0.57;;
72337;SDS011;60294;64.134;-21.862;2022-11-14T03:25:00;0.10;;;0.10;;
72337;SDS011;60294;64.134;-21.862;2022-11-14T03:27:26;0.65;;;0.20;;
72337;SDS011;60294;64.134;-21.862;2022-11-14T03:29:52;2.65;;;0.47;;
72337;SDS011;60294;64.134;-21.862;2022-11-14T03:32:18;0.22;;;0.20;;
72337;SDS011;60294;64.134;-21.862;2022-11-14T03:34:43;1.40;;;0.40;;
72337;SDS011;60294;64.134;-21.862;2022-11-14T03:37:09;4.97;;;0.43;;
72337;SDS011;60294;64.134;-21.862;2022-11-14T03:39:35;0.38;;;0.20;;
72337;SDS011;60294;64.134;-21.862;2022-11-14T03:42:01;0.90;;;0.40;;
72337;SDS011;60294;64.134;-21.862;2022-11-14T03:44:27;1.15;;;0.45;;
72337;SDS011;60294;64.134;-21.862;2022-11-14T03:46:52;1.70;;;0.50;;
72337;SDS011;60294;64.134;-21.862;2022-11-14T03:49:18;1.75;;;0.32;;
72337;SDS011;60294;64.134;-21.862;2022-11-14T03:51:44;0.47;;;0.30;;
72337;SDS011;60294;64.134;-21.862;2022-11-14T03:54:10;2.85;;;0.30;;
72337;SDS011;60294;64.134;-21.862;2022-11-14T03:56:35;0.85;;;0.30;;
72337;SDS011;60294;64.134;-21.862;2022-11-14T03:59:01;1.25;;;0.38;;
72337;SDS011;60294;64.134;-21.862;2022-11-14T04:01:27;2.83;;;0.20;;
72337;SDS011;60294;64.134;-21.862;2022-11-14T04:03:53;0.95;;;0.25;;
72337;SDS011;60294;64.134;-21.862;2022-11-14T04:06:19;1.85;;;0.68;;
72337;SDS011;60294;64.134;-21.862;2022-11-14T04:08:45;0.15;;;0.10;;
72337;SDS011;60294;64.134;-21.862;2022-11-14T04:11:11;0.80;;;0.30;;
72337;SDS011;60294;64.134;-21.862;2022-11-14T04:13:37;2.65;;;0.40;;
72337;SDS011;60294;64.134;-21.862;2022-11-14T04:16:02;0.68;;;0.20;;
72337;SDS011;60294;64.134;-21.862;2022-11-14T04:18:28;0.30;;;0.20;;
72337;SDS011;60294;64.134;-21.862;2022-11-14T04:20:54;1.25;;;0.28;;
72337;SDS011;60294;64.134;-21.862;2022-11-14T04:23:20;1.00;;;0.30;;
72337;SDS011;60294;64.134;-21.862;2022-11-14T04:25:46;1.10;;;0.30;;
72337;SDS011;60294;64.134;-21.862;2022-11-14T04:28:12;1.65;;;0.35;;
72337;SDS011;60294;64.134;-21.862;2022-11-14T04:30:38;1.50;;;0.32;;
72337;SDS011;60294;64.134;-21.862;2022-11-14T04:33:04;1.05;;;0.40;;
72337;SDS011;60294;64.134;-21.862;2022-11-14T04:35:30;0.75;;;0.30;;
72337;SDS011;60294;64.134;-21.862;2022-11-14T04:37:56;0.57;;;0.30;;
72337;SDS011;60294;64.134;-21.862;2022-11-14T04:40:22;0.75;;;0.35;;
72337;SDS011;60294;64.134;-21.862;2022-11-14T04:42:48;0.30;;;0.20;;
72337;SDS011;60294;64.134;-21.862;2022-11-14T04:45:14;1.55;;;0.20;;
72337;SDS011;60294;64.134;-21.862;2022-11-14T04:47:40;0.70;;;0.20;;
72337;SDS011;60294;64.134;-21.862;2022-11-14T04:50:06;0.50;;;0.30;;
72337;SDS011;60294;64.134;-21.862;2022-11-14T04:52:33;0.17;;;0.17;;
72337;SDS011;60294;64.134;-21.862;2022-11-14T04:54:59;0.40;;;0.20;;
72337;SDS011;60294;64.134;-21.862;2022-11-14T04:57:25;0.80;;;0.20;;
72337;SDS011;60294;64.134;-21.862;2022-11-14T04:59:51;0.55;;;0.20;;
72337;SDS011;60294;64.134;-21.862;2022-11-14T05:02:16;0.25;;;0.20;;
72337;SDS011;60294;64.134;-21.862;2022-11-14T05:04:42;0.30;;;0.13;;
72337;SDS011;60294;64.134;-21.862;2022-11-14T05:07:09;0.20;;;0.20;;
72337;SDS011;60294;64.134;-21.862;2022-11-14T05:09:35;2.63;;;0.22;;
72337;SDS011;60294;64.134;-21.862;2022-11-14T05:12:02;0.20;;;0.20;;
72337;SDS011;60294;64.134;-21.862;2022-11-14T05:14:28;0.25;;;0.20;;
72337;SDS011;60294;64.134;-21.862;2022-11-14T05:16:55;2.20;;;0.20;;
72337;SDS011;60294;64.134;-21.862;2022-11-14T05:19:22;0.20;;;0.20;;
72337;SDS011;60294;64.134;-21.862;2022-11-14T05:21:47;1.65;;;0.30;;
72337;SDS011;60294;64.134;-21.862;2022-11-14T05:24:13;1.75;;;0.40;;
72337;SDS011;60294;64.134;-21.862;2022-11-14T05:26:39;0.30;;;0.30;;
72337;SDS011;60294;64.134;-21.862;2022-11-14T05:29:05;0.25;;;0.20;;
72337;SDS011;60294;64.134;-21.862;2022-11-14T05:31:31;0.77;;;0.40;;
72337;SDS011;60294;64.134;-21.862;2022-11-14T05:33:57;1.08;;;0.38;;
72337;SDS011;60294;64.134;-21.862;2022-11-14T05:36:23;1.05;;;0.38;;
72337;SDS011;60294;64.134;-21.862;2022-11-14T05:38:48;1.35;;;0.57;;
72337;SDS011;60294;64.134;-21.862;2022-11-14T05:41:15;3.38;;;0.40;;
72337;SDS011;60294;64.134;-21.862;2022-11-14T05:43:44;0.85;;;0.30;;
72337;SDS011;60294;64.134;-21.862;2022-11-14T05:46:11;3.00;;;0.40;;
72337;SDS011;60294;64.134;-21.862;2022-11-14T05:48:38;1.63;;;0.40;;
72337;SDS011;60294;64.134;-21.862;2022-11-14T05:51:04;1.63;;;0.43;;
72337;SDS011;60294;64.134;-21.862;2022-11-14T05:53:31;2.25;;;0.40;;
72337;SDS011;60294;64.134;-21.862;2022-11-14T05:56:05;1.58;;;0.60;;
72337;SDS011;60294;64.134;-21.862;2022-11-14T05:58:34;1.45;;;0.55;;
72337;SDS011;60294;64.134;-21.862;2022-11-14T06:01:04;1.90;;;0.40;;
72337;SDS011;60294;64.134;-21.862;2022-11-14T06:03:35;2.00;;;0.40;;
72337;SDS011;60294;64.134;-21.862;2022-11-14T06:06:06;2.67;;;0.90;;
72337;SDS011;60294;64.134;-21.862;2022-11-14T06:08:34;3.03;;;0.60;;
72337;SDS011;60294;64.134;-21.862;2022-11-14T06:11:07;6.07;;;0.93;;
72337;SDS011;60294;64.134;-21.862;2022-11-14T06:13:35;5.00;;;0.70;;
72337;SDS011;60294;64.134;-21.862;2022-11-14T06:16:02;6.22;;;2.17;;
72337;SDS011;60294;64.134;-21.862;2022-11-14T06:18:32;5.07;;;1.33;;
72337;SDS011;60294;64.134;-21.862;2022-11-14T06:20:59;4.07;;;0.82;;
72337;SDS011;60294;64.134;-21.862;2022-11-14T06:23:30;3.67;;;1.00;;
72337;SDS011;60294;64.134;-21.862;2022-11-14T06:26:00;2.00;;;0.38;;
72337;SDS011;60294;64.134;-21.862;2022-11-14T06:28:27;0.85;;;0.40;;
72337;SDS011;60294;64.134;-21.862;2022-11-14T06:30:57;1.73;;;0.40;;
72337;SDS011;60294;64.134;-21.862;2022-11-14T06:33:27;4.22;;;0.60;;
72337;SDS011;60294;64.134;-21.862;2022-11-14T06:35:57;2.08;;;0.50;;
72337;SDS011;60294;64.134;-21.862;2022-11-14T06:38:24;1.90;;;0.60;;
72337;SDS011;60294;64.134;-21.862;2022-11-14T06:40:51;5.47;;;1.10;;
72337;SDS011;60294;64.134;-21.862;2022-11-14T06:43:16;5.85;;;1.23;;
72337;SDS011;60294;64.134;-21.862;2022-11-14T06:45:42;10.73;;;1.55;;
72337;SDS011;60294;64.134;-21.862;2022-11-14T06:48:08;13.88;;;2.75;;
72337;SDS011;60294;64.134;-21.862;2022-11-14T06:50:34;7.43;;;1.50;;
72337;SDS011;60294;64.134;-21.862;2022-11-14T06:53:00;8.88;;;2.15;;
72337;SDS011;60294;64.134;-21.862;2022-11-14T06:55:25;8.80;;;1.20;;
72337;SDS011;60294;64.134;-21.862;2022-11-14T06:57:52;0.20;;;0.20;;
72337;SDS011;60294;64.134;-21.862;2022-11-14T07:00:19;0.20;;;0.20;;
72337;SDS011;60294;64.134;-21.862;2022-11-14T07:02:47;0.47;;;0.20;;
72337;SDS011;60294;64.134;-21.862;2022-11-14T07:05:13;0.63;;;0.28;;
72337;SDS011;60294;64.134;-21.862;2022-11-14T07:07:39;0.17;;;0.17;;
72337;SDS011;60294;64.134;-21.862;2022-11-14T07:10:05;0.20;;;0.20;;
72337;SDS011;60294;64.134;-21.862;2022-11-14T07:12:31;0.45;;;0.30;;
72337;SDS011;60294;64.134;-21.862;2022-11-14T07:14:57;0.82;;;0.38;;
72337;SDS011;60294;64.134;-21.862;2022-11-14T07:17:23;3.67;;;1.13;;
72337;SDS011;60294;64.134;-21.862;2022-11-14T07:19:49;6.55;;;2.15;;
72337;SDS011;60294;64.134;-21.862;2022-11-14T07:22:14;6.93;;;1.27;;
72337;SDS011;60294;64.134;-21.862;2022-11-14T07:24:40;7.47;;;1.30;;
72337;SDS011;60294;64.134;-21.862;2022-11-14T07:27:06;9.10;;;1.23;;
72337;SDS011;60294;64.134;-21.862;2022-11-14T07:29:35;14.32;;;1.85;;
72337;SDS011;60294;64.134;-21.862;2022-11-14T07:32:01;15.82;;;1.60;;
72337;SDS011;60294;64.134;-21.862;2022-11-14T07:34:27;7.13;;;0.65;;
72337;SDS011;60294;64.134;-21.862;2022-11-14T07:36:52;7.05;;;1.25;;
72337;SDS011;60294;64.134;-21.862;2022-11-14T07:39:19;5.63;;;0.90;;
72337;SDS011;60294;64.134;-21.862;2022-11-14T07:41:45;7.43;;;1.10;;
72337;SDS011;60294;64.134;-21.862;2022-11-14T07:44:11;7.47;;;1.10;;
72337;SDS011;60294;64.134;-21.862;2022-11-14T07:46:36;11.20;;;1.50;;
72337;SDS011;60294;64.134;-21.862;2022-11-14T07:49:02;5.95;;;1.23;;
72337;SDS011;60294;64.134;-21.862;2022-11-14T07:51:28;8.68;;;1.40;;
72337;SDS011;60294;64.134;-21.862;2022-11-14T07:53:54;9.23;;;1.25;;
72337;SDS011;60294;64.134;-21.862;2022-11-14T07:56:19;7.80;;;2.25;;
72337;SDS011;60294;64.134;-21.862;2022-11-14T07:58:46;11.95;;;1.70;;
72337;SDS011;60294;64.134;-21.862;2022-11-14T08:01:12;1.10;;;0.60;;
72337;SDS011;60294;64.134;-21.862;2022-11-14T08:03:39;1.40;;;0.28;;
72337;SDS011;60294;64.134;-21.862;2022-11-14T08:06:07;2.63;;;0.40;;
72337;SDS011;60294;64.134;-21.862;2022-11-14T08:08:35;3.22;;;0.70;;
72337;SDS011;60294;64.134;-21.862;2022-11-14T08:11:01;4.15;;;0.73;;
72337;SDS011;60294;64.134;-21.862;2022-11-14T08:13:27;9.43;;;1.17;;
72337;SDS011;60294;64.134;-21.862;2022-11-14T08:15:54;4.20;;;1.65;;
72337;SDS011;60294;64.134;-21.862;2022-11-14T08:18:20;11.57;;;1.38;;
72337;SDS011;60294;64.134;-21.862;2022-11-14T08:20:46;4.80;;;0.80;;
72337;SDS011;60294;64.134;-21.862;2022-11-14T08:23:13;3.30;;;0.70;;
72337;SDS011;60294;64.134;-21.862;2022-11-14T08:25:39;2.10;;;0.40;;
72337;SDS011;60294;64.134;-21.862;2022-11-14T08:28:05;3.57;;;0.77;;
72337;SDS011;60294;64.134;-21.862;2022-11-14T08:30:31;2.17;;;0.40;;
72337;SDS011;60294;64.134;-21.862;2022-11-14T08:33:00;5.70;;;1.53;;
72337;SDS011;60294;64.134;-21.862;2022-11-14T08:35:27;6.33;;;0.70;;
72337;SDS011;60294;64.134;-21.862;2022-11-14T08:37:53;3.83;;;0.60;;
72337;SDS011;60294;64.134;-21.862;2022-11-14T08:40:19;9.50;;;0.90;;
72337;SDS011;60294;64.134;-21.862;2022-11-14T08:42:45;10.80;;;1.30;;
72337;SDS011;60294;64.134;-21.862;2022-11-14T08:45:11;4.27;;;0.97;;
72337;SDS011;60294;64.134;-21.862;2022-11-14T08:47:36;9.40;;;1.70;;
72337;SDS011;60294;64.134;-21.862;2022-11-14T08:50:04;5.57;;;0.83;;
72337;SDS011;60294;64.134;-21.862;2022-11-14T08:52:30;5.23;;;1.40;;
72337;SDS011;60294;64.134;-21.862;2022-11-14T08:54:56;5.60;;;0.83;;
72337;SDS011;60294;64.134;-21.862;2022-11-14T08:57:22;6.63;;;0.50;;
72337;SDS011;60294;64.134;-21.862;2022-11-14T08:59:48;7.70;;;1.30;;
72337;SDS011;60294;64.134;-21.862;2022-11-14T09:02:14;3.97;;;0.83;;
72337;SDS011;60294;64.134;-21.862;2022-11-14T09:04:39;6.77;;;0.77;;
72337;SDS011;60294;64.134;-21.862;2022-11-14T09:07:06;2.23;;;0.30;;
72337;SDS011;60294;64.134;-21.862;2022-11-14T09:09:31;3.10;;;0.63;;
72337;SDS011;60294;64.134;-21.862;2022-11-14T09:11:57;5.57;;;0.60;;
72337;SDS011;60294;64.134;-21.862;2022-11-14T09:14:23;12.73;;;1.07;;
72337;SDS011;60294;64.134;-21.862;2022-11-14T09:16:49;4.53;;;0.93;;
72337;SDS011;60294;64.134;-21.862;2022-11-14T09:19:15;8.17;;;0.70;;
72337;SDS011;60294;64.134;-21.862;2022-11-14T09:21:41;4.47;;;0.50;;
72337;SDS011;60294;64.134;-21.862;2022-11-14T09:24:07;1.13;;;0.37;;
72337;SDS011;60294;64.134;-21.862;2022-11-14T09:26:33;11.20;;;1.10;;
72337;SDS011;60294;64.134;-21.862;2022-11-14T09:28:59;7.30;;;1.00;;
72337;SDS011;60294;64.134;-21.862;2022-11-14T09:31:26;3.83;;;0.47;;
72337;SDS011;60294;64.134;-21.862;2022-11-14T09:33:52;4.43;;;0.47;;
72337;SDS011;60294;64.134;-21.862;2022-11-14T09:36:18;0.73;;;0.40;;
72337;SDS011;60294;64.134;-21.862;2022-11-14T09:38:44;1.53;;;0.20;;
72337;SDS011;60294;64.134;-21.862;2022-11-14T09:43:46;1.23;;;0.30;;
72337;SDS011;60294;64.134;-21.862;2022-11-14T09:46:35;2.03;;;0.40;;
72337;SDS011;60294;64.134;-21.862;2022-11-14T09:52:16;0.53;;;0.30;;
72337;SDS011;60294;64.134;-21.862;2022-11-14T09:54:51;1.02;;;0.32;;
72337;SDS011;60294;64.134;-21.862;2022-11-14T09:57:22;1.67;;;0.20;;
72337;SDS011;60294;64.134;-21.862;2022-11-14T09:59:49;3.47;;;1.60;;
72337;SDS011;60294;64.134;-21.862;2022-11-14T10:02:29;1.40;;;0.30;;
72337;SDS011;60294;64.134;-21.862;2022-11-14T10:08:42;1.53;;;0.23;;
72337;SDS011;60294;64.134;-21.862;2022-11-14T10:11:09;1.63;;;0.53;;
72337;SDS011;60294;64.134;-21.862;2022-11-14T10:16:35;2.40;;;0.30;;
72337;SDS011;60294;64.134;-21.862;2022-11-14T10:25:00;6.37;;;1.00;;
72337;SDS011;60294;64.134;-21.862;2022-11-14T10:30:39;6.17;;;0.97;;
72337;SDS011;60294;64.134;-21.862;2022-11-14T10:33:34;1.13;;;0.30;;
72337;SDS011;60294;64.134;-21.862;2022-11-14T10:36:06;3.92;;;0.50;;
72337;SDS011;60294;64.134;-21.862;2022-11-14T10:38:53;2.70;;;0.40;;
72337;SDS011;60294;64.134;-21.862;2022-11-14T10:41:35;1.53;;;0.70;;
72337;SDS011;60294;64.134;-21.862;2022-11-14T10:44:03;3.17;;;0.77;;
72337;SDS011;60294;64.134;-21.862;2022-11-14T10:46:35;5.13;;;0.57;;
72337;SDS011;60294;64.134;-21.862;2022-11-14T10:52:02;8.03;;;0.93;;
72337;SDS011;60294;64.134;-21.862;2022-11-14T10:54:33;5.40;;;1.00;;
72337;SDS011;60294;64.134;-21.862;2022-11-14T10:57:12;5.40;;;1.33;;
72337;SDS011;60294;64.134;-21.862;2022-11-14T10:59:43;3.07;;;0.60;;
72337;SDS011;60294;64.134;-21.862;2022-11-14T11:02:09;7.03;;;1.20;;
72337;SDS011;60294;64.134;-21.862;2022-11-14T11:04:36;2.03;;;0.40;;
72337;SDS011;60294;64.134;-21.862;2022-11-14T11:09:38;2.70;;;0.83;;
72337;SDS011;60294;64.134;-21.862;2022-11-14T11:12:24;5.23;;;0.60;;
72337;SDS011;60294;64.134;-21.862;2022-11-14T11:15:37;2.27;;;0.50;;
72337;SDS011;60294;64.134;-21.862;2022-11-14T11:17:55;1.77;;;0.30;;
72337;SDS011;60294;64.134;-21.862;2022-11-14T11:20:27;0.90;;;0.20;;
72337;SDS011;60294;64.134;-21.862;2022-11-14T11:25:34;1.43;;;0.30;;
72337;SDS011;60294;64.134;-21.862;2022-11-14T11:30:36;2.90;;;0.57;;
72337;SDS011;60294;64.134;-21.862;2022-11-14T11:35:59;4.50;;;0.77;;
72337;SDS011;60294;64.134;-21.862;2022-11-14T11:38:29;0.67;;;0.40;;
72337;SDS011;60294;64.134;-21.862;2022-11-14T11:41:04;1.97;;;0.80;;
72337;SDS011;60294;64.134;-21.862;2022-11-14T11:43:44;8.30;;;1.57;;
72337;SDS011;60294;64.134;-21.862;2022-11-14T11:46:20;1.57;;;0.70;;
72337;SDS011;60294;64.134;-21.862;2022-11-14T11:48:54;5.87;;;1.10;;
72337;SDS011;60294;64.134;-21.862;2022-11-14T11:51:30;2.73;;;0.63;;
72337;SDS011;60294;64.134;-21.862;2022-11-14T11:54:03;1.63;;;0.52;;
72337;SDS011;60294;64.134;-21.862;2022-11-14T11:56:37;2.50;;;1.03;;
72337;SDS011;60294;64.134;-21.862;2022-11-14T12:01:46;7.60;;;0.87;;
72337;SDS011;60294;64.134;-21.862;2022-11-14T12:04:12;8.57;;;1.87;;
72337;SDS011;60294;64.134;-21.862;2022-11-14T12:07:24;15.33;;;1.83;;
72337;SDS011;60294;64.134;-21.862;2022-11-14T12:09:46;8.23;;;1.20;;
72337;SDS011;60294;64.134;-21.862;2022-11-14T12:12:58;8.67;;;1.47;;
72337;SDS011;60294;64.134;-21.862;2022-11-14T12:15:16;2.87;;;0.67;;
72337;SDS011;60294;64.134;-21.862;2022-11-14T12:26:17;11.77;;;1.50;;
72337;SDS011;60294;64.134;-21.862;2022-11-14T12:31:36;13.45;;;1.80;;
72337;SDS011;60294;64.134;-21.862;2022-11-14T12:34:06;11.73;;;1.53;;
72337;SDS011;60294;64.134;-21.862;2022-11-14T12:36:42;5.18;;;1.30;;
72337;SDS011;60294;64.134;-21.862;2022-11-14T12:39:19;10.30;;;2.60;;
72337;SDS011;60294;64.134;-21.862;2022-11-14T12:41:59;8.68;;;1.33;;
72337;SDS011;60294;64.134;-21.862;2022-11-14T13:00:15;8.90;;;1.63;;
72337;SDS011;60294;64.134;-21.862;2022-11-14T13:02:47;7.15;;;1.10;;
72337;SDS011;60294;64.134;-21.862;2022-11-14T13:11:31;7.80;;;2.20;;
72337;SDS011;60294;64.134;-21.862;2022-11-14T13:14:14;6.82;;;1.13;;
72337;SDS011;60294;64.134;-21.862;2022-11-14T13:19:56;2.47;;;0.60;;
72337;SDS011;60294;64.134;-21.862;2022-11-14T13:22:44;7.85;;;0.98;;
72337;SDS011;60294;64.134;-21.862;2022-11-14T13:27:40;3.20;;;0.77;;
72337;SDS011;60294;64.134;-21.862;2022-11-14T13:30:06;7.72;;;0.90;;
72337;SDS011;60294;64.134;-21.862;2022-11-14T13:40:24;1.98;;;0.47;;
72337;SDS011;60294;64.134;-21.862;2022-11-14T13:51:04;6.07;;;1.00;;
72337;SDS011;60294;64.134;-21.862;2022-11-14T13:53:34;8.32;;;1.67;;
72337;SDS011;60294;64.134;-21.862;2022-11-14T13:56:07;8.02;;;1.00;;
72337;SDS011;60294;64.134;-21.862;2022-11-14T14:01:54;8.18;;;1.10;;
72337;SDS011;60294;64.134;-21.862;2022-11-14T14:07:31;3.45;;;0.73;;
72337;SDS011;60294;64.134;-21.862;2022-11-14T14:10:33;3.50;;;1.65;;
72337;SDS011;60294;64.134;-21.862;2022-11-14T14:22:06;6.25;;;1.05;;
72337;SDS011;60294;64.134;-21.862;2022-11-14T14:25:01;4.60;;;0.80;;
72337;SDS011;60294;64.134;-21.862;2022-11-14T14:30:34;10.70;;;1.95;;
72337;SDS011;60294;64.134;-21.862;2022-11-14T14:35:33;5.20;;;1.40;;
72337;SDS011;60294;64.134;-21.862;2022-11-14T14:38:01;6.47;;;0.63;;
72337;SDS011;60294;64.134;-21.862;2022-11-14T14:40:34;5.10;;;0.90;;
72337;SDS011;60294;64.134;-21.862;2022-11-14T14:43:01;4.32;;;0.50;;
72337;SDS011;60294;64.134;-21.862;2022-11-14T14:45:31;5.00;;;0.70;;
72337;SDS011;60294;64.134;-21.862;2022-11-14T14:48:12;7.80;;;1.25;;
72337;SDS011;60294;64.134;-21.862;2022-11-14T14:50:41;6.50;;;0.88;;
72337;SDS011;60294;64.134;-21.862;2022-11-14T14:53:19;2.63;;;0.50;;
72337;SDS011;60294;64.134;-21.862;2022-11-14T14:55:59;2.08;;;0.40;;
72337;SDS011;60294;64.134;-21.862;2022-11-14T14:58:30;2.67;;;0.50;;
72337;SDS011;60294;64.134;-21.862;2022-11-14T15:00:58;2.20;;;0.50;;
72337;SDS011;60294;64.134;-21.862;2022-11-14T15:06:34;6.63;;;1.15;;
72337;SDS011;60294;64.134;-21.862;2022-11-14T15:11:31;1.15;;;0.20;;
72337;SDS011;60294;64.134;-21.862;2022-11-14T15:13:58;2.38;;;0.35;;
72337;SDS011;60294;64.134;-21.862;2022-11-14T15:16:26;1.65;;;0.40;;
72337;SDS011;60294;64.134;-21.862;2022-11-14T15:18:53;1.23;;;0.50;;
72337;SDS011;60294;64.134;-21.862;2022-11-14T15:21:28;0.40;;;0.30;;
72337;SDS011;60294;64.134;-21.862;2022-11-14T15:26:24;0.68;;;0.10;;
72337;SDS011;60294;64.134;-21.862;2022-11-14T15:28:50;0.63;;;0.38;;
72337;SDS011;60294;64.134;-21.862;2022-11-14T15:31:19;0.20;;;0.20;;
72337;SDS011;60294;64.134;-21.862;2022-11-14T15:34:20;1.27;;;0.20;;
72337;SDS011;60294;64.134;-21.862;2022-11-14T15:39:42;3.72;;;0.45;;
72337;SDS011;60294;64.134;-21.862;2022-11-14T15:44:53;5.78;;;0.60;;
72337;SDS011;60294;64.134;-21.862;2022-11-14T15:49:57;0.10;;;0.10;;
72337;SDS011;60294;64.134;-21.862;2022-11-14T15:52:33;1.52;;;1.42;;
72337;SDS011;60294;64.134;-21.862;2022-11-14T15:55:01;0.43;;;0.20;;
72337;SDS011;60294;64.134;-21.862;2022-11-14T15:57:29;1.50;;;0.40;;
72337;SDS011;60294;64.134;-21.862;2022-11-14T15:59:56;2.53;;;0.55;;
72337;SDS011;60294;64.134;-21.862;2022-11-14T16:02:29;0.77;;;0.32;;
72337;SDS011;60294;64.134;-21.862;2022-11-14T16:04:57;0.77;;;0.40;;
72337;SDS011;60294;64.134;-21.862;2022-11-14T16:07:26;5.82;;;1.25;;
72337;SDS011;60294;64.134;-21.862;2022-11-14T16:09:54;0.73;;;0.45;;
72337;SDS011;60294;64.134;-21.862;2022-11-14T16:12:20;2.35;;;0.68;;
72337;SDS011;60294;64.134;-21.862;2022-11-14T16:14:45;2.92;;;0.30;;
72337;SDS011;60294;64.134;-21.862;2022-11-14T16:17:12;3.00;;;0.52;;
72337;SDS011;60294;64.134;-21.862;2022-11-14T16:19:39;0.73;;;0.30;;
72337;SDS011;60294;64.134;-21.862;2022-11-14T16:22:07;2.00;;;0.40;;
72337;SDS011;60294;64.134;-21.862;2022-11-14T16:24:37;5.68;;;0.47;;
72337;SDS011;60294;64.134;-21.862;2022-11-14T16:27:03;1.27;;;0.30;;
72337;SDS011;60294;64.134;-21.862;2022-11-14T16:29:29;1.85;;;0.30;;
72337;SDS011;60294;64.134;-21.862;2022-11-14T16:31:55;0.10;;;0.10;;
72337;SDS011;60294;64.134;-21.862;2022-11-14T16:34:24;0.30;;;0.17;;
72337;SDS011;60294;64.134;-21.862;2022-11-14T16:36:58;0.90;;;0.30;;
72337;SDS011;60294;64.134;-21.862;2022-11-14T16:39:26;0.20;;;0.20;;
72337;SDS011;60294;64.134;-21.862;2022-11-14T16:41:53;0.28;;;0.20;;
72337;SDS011;60294;64.134;-21.862;2022-11-14T16:44:25;0.20;;;0.20;;
72337;SDS011;60294;64.134;-21.862;2022-11-14T16:46:51;0.30;;;0.20;;